Time;durP1;ratioP1;P1;durP2;ratioP2;P2;SDS_P1;SDS_P2;PMS_P1;PMS_P2;Temp;Humidity;BMP_temperature;BMP_pressure;BME280_temperature;BME280_humidity;BME280_pressure;Samples;Min_cycle;Max_cycle;Signal;HPM_P1;HPM_P2
2023/03/25 00:01:33;;;;;;;2.63;0.80;;;12.80;89.30;;;;;;4947639;29;20023;-81
2023/03/25 00:04:03;;;;;;;1.25;0.60;;;12.80;89.30;;;;;;4957314;29;20087;-81
2023/03/25 00:06:29;;;;;;;1.92;0.70;;;12.80;89.30;;;;;;4952777;28;20082;-82
2023/03/25 00:08:55;;;;;;;1.65;0.70;;;12.80;89.30;;;;;;4942864;29;20126;-82
2023/03/25 00:11:20;;;;;;;1.00;0.60;;;12.80;89.40;;;;;;4958498;29;20061;-81
2023/03/25 00:13:47;;;;;;;1.85;0.60;;;12.80;89.30;;;;;;4957261;29;20480;-80
2023/03/25 00:16:14;;;;;;;1.75;0.70;;;12.80;89.30;;;;;;4942026;28;20039;-81
2023/03/25 00:18:40;;;;;;;1.10;0.63;;;12.80;89.40;;;;;;4932273;29;20038;-81
2023/03/25 00:21:10;;;;;;;1.83;0.60;;;12.80;89.30;;;;;;4937841;29;20032;-80
2023/03/25 00:23:37;;;;;;;1.08;0.50;;;12.80;89.30;;;;;;4935431;29;20407;-80
2023/03/25 00:26:03;;;;;;;1.60;0.85;;;12.80;89.30;;;;;;4938710;29;20023;-81
2023/03/25 00:28:33;;;;;;;1.80;0.80;;;12.80;89.40;;;;;;4947257;29;20062;-81
2023/03/25 00:31:00;;;;;;;1.02;0.60;;;12.80;89.40;;;;;;4956911;28;20042;-81
2023/03/25 00:33:26;;;;;;;2.13;0.82;;;12.80;89.30;;;;;;4955400;29;20028;-81
2023/03/25 00:35:57;;;;;;;1.02;0.70;;;12.80;89.40;;;;;;4946757;28;20021;-80
2023/03/25 00:38:32;;;;;;;1.10;0.70;;;12.80;89.30;;;;;;4940988;29;20027;-80
2023/03/25 00:41:06;;;;;;;1.67;0.73;;;12.80;89.30;;;;;;4934039;29;20024;-80
2023/03/25 00:43:32;;;;;;;0.90;0.70;;;12.80;89.30;;;;;;4934122;29;20477;-80
2023/03/25 00:45:57;;;;;;;1.33;0.68;;;12.80;89.30;;;;;;4935587;29;20063;-80
2023/03/25 00:48:23;;;;;;;1.52;0.68;;;12.80;89.40;;;;;;4925810;29;20059;-80
2023/03/25 00:50:48;;;;;;;1.55;0.63;;;12.70;89.30;;;;;;4946729;29;20023;-81
2023/03/25 00:53:14;;;;;;;1.52;0.70;;;12.80;89.40;;;;;;4953865;29;20065;-80
2023/03/25 00:55:40;;;;;;;1.30;0.50;;;12.80;89.50;;;;;;4953520;28;20070;-81
2023/03/25 00:58:05;;;;;;;1.15;0.70;;;12.80;89.40;;;;;;4942118;29;20504;-80
2023/03/25 01:00:31;;;;;;;2.42;0.70;;;12.80;89.40;;;;;;4935507;29;20063;-80
2023/03/25 01:02:57;;;;;;;1.67;0.75;;;12.80;89.40;;;;;;4934610;29;20027;-81
2023/03/25 01:05:22;;;;;;;1.20;0.70;;;12.80;89.50;;;;;;4934418;29;20055;-80
2023/03/25 01:07:48;;;;;;;1.70;0.73;;;12.80;89.50;;;;;;4922920;29;20453;-81
2023/03/25 01:10:14;;;;;;;0.65;0.40;;;12.80;89.50;;;;;;4915582;29;20024;-81
2023/03/25 01:12:39;;;;;;;1.45;0.88;;;12.80;89.50;;;;;;4917719;29;20030;-81
2023/03/25 01:15:06;;;;;;;1.58;0.80;;;12.80;89.50;;;;;;4916205;29;20060;-80
2023/03/25 01:17:31;;;;;;;1.20;0.70;;;12.80;89.50;;;;;;4943391;28;20465;-80
2023/03/25 01:19:57;;;;;;;2.35;0.80;;;12.70;89.40;;;;;;4945016;29;20056;-79
2023/03/25 01:22:22;;;;;;;1.02;0.60;;;12.80;89.50;;;;;;4954341;28;20027;-81
2023/03/25 01:24:48;;;;;;;1.98;0.88;;;12.80;89.60;;;;;;4954989;28;20032;-81
2023/03/25 01:27:13;;;;;;;1.50;0.70;;;12.80;89.50;;;;;;4941969;28;20027;-80
2023/03/25 01:29:39;;;;;;;1.20;0.70;;;12.80;89.50;;;;;;4940834;29;20030;-80
2023/03/25 01:32:05;;;;;;;1.67;0.73;;;12.70;89.40;;;;;;4952995;29;20574;-81
2023/03/25 01:34:32;;;;;;;1.58;0.70;;;12.80;90.00;;;;;;4953520;29;20042;-80
2023/03/25 01:36:58;;;;;;;1.45;0.70;;;12.80;89.50;;;;;;4933367;28;20398;-80
2023/03/25 01:39:23;;;;;;;1.70;0.70;;;12.70;89.40;;;;;;4932545;29;20100;-79
2023/03/25 01:41:49;;;;;;;1.05;0.70;;;12.70;89.50;;;;;;4933860;29;20122;-81
2023/03/25 01:44:18;;;;;;;1.15;0.73;;;12.80;89.50;;;;;;4935423;29;20032;-81
2023/03/25 01:46:45;;;;;;;1.15;0.70;;;12.80;89.50;;;;;;4933602;29;20026;-80
2023/03/25 01:49:22;;;;;;;1.08;0.65;;;12.80;89.50;;;;;;4933858;29;20024;-81
2023/03/25 01:51:52;;;;;;;1.73;0.82;;;12.80;89.50;;;;;;4949292;29;20036;-81
2023/03/25 01:54:17;;;;;;;1.30;0.75;;;12.80;89.50;;;;;;4956676;28;20078;-81
2023/03/25 01:56:46;;;;;;;1.90;0.80;;;12.80;89.50;;;;;;4948566;28;20071;-79
2023/03/25 01:59:13;;;;;;;1.42;0.80;;;12.80;89.60;;;;;;4950001;29;20431;-81
2023/03/25 02:01:40;;;;;;;1.90;0.73;;;12.70;89.50;;;;;;4949204;29;20485;-81
2023/03/25 02:04:10;;;;;;;0.70;0.70;;;12.80;89.50;;;;;;4946300;29;20124;-82
2023/03/25 02:06:43;;;;;;;1.88;0.70;;;12.80;89.50;;;;;;4936622;29;20028;-82
2023/03/25 02:09:11;;;;;;;0.85;0.60;;;12.70;89.50;;;;;;4931551;29;20031;-82
2023/03/25 02:11:38;;;;;;;1.10;0.70;;;12.80;89.50;;;;;;4960784;28;20020;-81
2023/03/25 02:14:07;;;;;;;0.73;0.60;;;12.80;89.50;;;;;;4958482;28;20075;-81
2023/03/25 02:16:45;;;;;;;1.58;0.85;;;12.80;89.50;;;;;;4955332;28;20086;-82
2023/03/25 02:19:39;;;;;;;1.58;0.90;;;12.80;89.50;;;;;;4957908;29;20492;-80
2023/03/25 02:22:40;;;;;;;2.20;0.70;;;12.70;89.10;;;;;;4956473;29;20039;-80
2023/03/25 02:25:38;;;;;;;1.88;0.85;;;12.80;89.40;;;;;;4958915;29;20682;-81
2023/03/25 02:28:35;;;;;;;1.63;0.70;;;12.70;89.20;;;;;;4958325;29;20031;-81
2023/03/25 02:31:21;;;;;;;1.55;0.70;;;12.80;89.40;;;;;;4942688;29;20024;-81
2023/03/25 02:34:00;;;;;;;1.33;0.75;;;12.80;89.40;;;;;;4942374;29;20020;-81
2023/03/25 02:36:44;;;;;;;1.85;0.75;;;12.80;89.10;;;;;;4943694;29;20023;-80
2023/03/25 02:39:28;;;;;;;1.20;0.73;;;12.80;89.40;;;;;;4947051;29;20046;-81
2023/03/25 02:42:16;;;;;;;1.65;0.85;;;12.70;89.40;;;;;;4938950;29;20031;-80
2023/03/25 02:45:02;;;;;;;2.15;0.90;;;12.70;89.30;;;;;;4936663;29;20118;-80
2023/03/25 02:47:35;;;;;;;0.98;0.60;;;12.70;89.30;;;;;;4924093;29;20414;-81
2023/03/25 02:50:09;;;;;;;0.88;0.68;;;12.70;89.50;;;;;;4953532;29;20563;-80
2023/03/25 02:52:39;;;;;;;1.67;0.80;;;12.80;89.50;;;;;;4941094;29;20568;-81
2023/03/25 02:55:09;;;;;;;1.38;0.80;;;12.70;89.40;;;;;;4943651;29;20031;-81
2023/03/25 02:57:38;;;;;;;1.65;0.77;;;12.70;89.50;;;;;;4948751;29;20019;-82
2023/03/25 03:00:14;;;;;;;1.75;0.90;;;12.70;89.50;;;;;;4950550;29;20472;-80
2023/03/25 03:03:09;;;;;;;1.45;0.73;;;12.70;89.50;;;;;;4943837;29;20107;-81
2023/03/25 03:05:42;;;;;;;1.20;0.70;;;12.70;89.40;;;;;;4926754;29;20067;-82
2023/03/25 03:08:23;;;;;;;1.48;0.70;;;12.80;89.50;;;;;;4936392;29;20030;-80
2023/03/25 03:11:18;;;;;;;1.17;0.70;;;12.70;89.40;;;;;;4955981;29;20106;-80
2023/03/25 03:13:56;;;;;;;2.03;0.80;;;12.70;89.40;;;;;;4958059;29;20035;-81
2023/03/25 03:16:43;;;;;;;1.00;0.70;;;12.80;89.30;;;;;;4955210;28;20032;-80
2023/03/25 03:19:26;;;;;;;2.00;0.90;;;12.70;89.50;;;;;;4943278;29;20030;-80
2023/03/25 03:22:24;;;;;;;1.52;0.90;;;12.70;89.40;;;;;;4943007;29;20091;-81
2023/03/25 03:24:59;;;;;;;1.42;0.70;;;12.70;89.50;;;;;;4937250;29;20055;-80
2023/03/25 03:27:37;;;;;;;1.33;0.80;;;12.70;89.50;;;;;;4933255;29;20043;-80
2023/03/25 03:30:16;;;;;;;1.80;0.77;;;12.70;89.50;;;;;;4937592;29;20032;-82
2023/03/25 03:32:52;;;;;;;1.10;0.70;;;12.70;89.50;;;;;;4939060;29;20034;-80
2023/03/25 03:35:24;;;;;;;0.70;0.65;;;12.70;89.50;;;;;;4938499;29;20127;-82
2023/03/25 03:37:56;;;;;;;1.75;0.70;;;12.70;89.50;;;;;;4943443;29;20024;-80
2023/03/25 03:40:23;;;;;;;1.40;0.70;;;12.70;89.80;;;;;;4933216;29;20027;-81
2023/03/25 03:42:56;;;;;;;1.55;0.80;;;12.70;89.50;;;;;;4938616;28;20118;-80
2023/03/25 03:45:36;;;;;;;1.33;0.73;;;12.70;89.50;;;;;;4938343;29;20032;-81
2023/03/25 03:48:07;;;;;;;1.63;0.85;;;12.70;89.40;;;;;;4934527;29;20087;-80
2023/03/25 03:50:43;;;;;;;1.83;0.85;;;12.70;89.50;;;;;;4917553;29;20028;-80
2023/03/25 03:53:19;;;;;;;1.40;0.80;;;12.70;90.00;;;;;;4932118;29;20020;-79
2023/03/25 03:55:49;;;;;;;1.55;0.75;;;12.70;89.40;;;;;;4921195;29;20023;-80
2023/03/25 03:58:22;;;;;;;1.48;0.90;;;12.70;89.70;;;;;;4935797;29;20024;-81
2023/03/25 04:00:58;;;;;;;2.35;1.10;;;12.70;89.30;;;;;;4937195;29;20059;-80
2023/03/25 04:03:37;;;;;;;1.70;0.80;;;12.70;89.40;;;;;;4936878;29;20028;-81
2023/03/25 04:06:13;;;;;;;1.48;0.77;;;12.70;89.00;;;;;;4936508;29;20060;-79
2023/03/25 04:08:57;;;;;;;1.48;0.75;;;12.70;89.40;;;;;;4936527;29;20473;-81
2023/03/25 04:11:31;;;;;;;3.35;1.00;;;12.70;89.30;;;;;;4935188;29;20020;-80
2023/03/25 04:13:59;;;;;;;1.98;0.90;;;12.70;89.40;;;;;;4936244;29;20028;-80
2023/03/25 04:18:59;;;;;;;1.17;0.90;;;12.70;89.40;;;;;;4954503;23;20063;-84
2023/03/25 04:21:25;;;;;;;1.00;0.82;;;12.70;89.40;;;;;;4934413;29;20138;-83
2023/03/25 04:23:50;;;;;;;2.38;1.00;;;12.70;89.30;;;;;;4934963;29;20055;-83
2023/03/25 04:26:16;;;;;;;1.50;0.90;;;12.70;89.50;;;;;;4934980;29;20490;-84
2023/03/25 04:28:43;;;;;;;1.33;0.93;;;12.70;89.50;;;;;;4913422;29;20039;-84
2023/03/25 04:31:17;;;;;;;1.58;0.90;;;12.70;88.80;;;;;;4896844;29;20124;-83
2023/03/25 04:33:47;;;;;;;1.38;0.80;;;12.70;89.30;;;;;;4897047;29;20441;-84
2023/03/25 04:36:14;;;;;;;1.77;0.90;;;12.70;89.10;;;;;;4896981;29;20025;-84
2023/03/25 04:38:44;;;;;;;1.80;0.77;;;12.70;88.30;;;;;;4908113;29;20036;-84
2023/03/25 04:41:10;;;;;;;2.05;1.00;;;12.70;89.30;;;;;;4915644;29;20088;-84
2023/03/25 04:43:38;;;;;;;2.28;0.95;;;12.70;88.30;;;;;;4915738;29;20433;-84
2023/03/25 04:46:04;;;;;;;1.98;0.80;;;12.70;88.80;;;;;;4915864;29;20405;-84
2023/03/25 04:48:31;;;;;;;1.48;0.93;;;12.70;89.20;;;;;;4915551;29;20032;-84
2023/03/25 04:50:58;;;;;;;2.15;1.00;;;12.70;89.00;;;;;;4915035;29;20024;-83
2023/03/25 04:53:25;;;;;;;2.83;1.00;;;12.70;89.00;;;;;;4915565;29;20114;-83
2023/03/25 04:55:51;;;;;;;1.90;0.85;;;12.70;88.80;;;;;;4915546;29;20021;-83
2023/03/25 04:58:17;;;;;;;1.23;1.00;;;12.70;89.20;;;;;;4915233;29;20397;-83
2023/03/25 05:00:44;;;;;;;1.75;0.90;;;12.70;88.50;;;;;;4915401;29;20028;-84
2023/03/25 05:03:10;;;;;;;1.13;0.73;;;12.70;88.70;;;;;;4915483;29;20051;-83
2023/03/25 05:05:36;;;;;;;0.90;0.80;;;12.70;88.90;;;;;;4915361;29;20489;-83
2023/03/25 05:08:02;;;;;;;0.90;0.80;;;12.70;88.80;;;;;;4915091;29;20024;-83
2023/03/25 05:10:28;;;;;;;2.20;1.00;;;12.70;88.40;;;;;;4921668;29;20028;-84
2023/03/25 05:13:02;;;;;;;1.08;0.90;;;12.70;88.70;;;;;;4934277;29;20050;-84
2023/03/25 05:15:31;;;;;;;1.67;0.90;;;12.70;88.80;;;;;;4934220;29;20055;-81
2023/03/25 10:20:16;;;;;;;8.73;2.03;;;12.80;88.10;;;;;;4919270;29;20455;-80
2023/03/25 10:23:00;;;;;;;8.23;1.60;;;12.70;88.20;;;;;;4943521;29;20032;-82
2023/03/25 10:25:31;;;;;;;8.43;2.10;;;12.80;88.20;;;;;;4945176;29;20028;-81
2023/03/25 10:27:59;;;;;;;7.22;2.13;;;12.90;88.00;;;;;;4953517;29;20024;-82
2023/03/25 10:30:30;;;;;;;6.68;1.70;;;12.80;87.80;;;;;;4919481;29;20047;-80
2023/03/25 10:33:01;;;;;;;5.63;1.80;;;12.80;87.90;;;;;;4919104;29;20060;-81
2023/03/25 10:35:34;;;;;;;6.97;1.77;;;12.80;87.80;;;;;;4920599;29;20084;-82
2023/03/25 10:38:11;;;;;;;7.00;1.95;;;12.80;88.00;;;;;;4924854;29;20035;-81
2023/03/25 10:40:43;;;;;;;6.10;2.10;;;12.80;88.00;;;;;;4923894;29;20043;-82
2023/03/25 10:43:22;;;;;;;4.10;1.75;;;12.90;88.10;;;;;;4929836;29;20024;-80
2023/03/25 10:45:49;;;;;;;5.80;1.65;;;12.90;87.80;;;;;;4919991;29;20035;-81
2023/03/25 10:48:25;;;;;;;3.97;1.40;;;12.90;87.50;;;;;;4933028;29;20028;-81
2023/03/25 10:50:57;;;;;;;4.65;1.60;;;13.00;87.30;;;;;;4930360;29;20042;-81
2023/03/25 10:53:27;;;;;;;4.65;1.42;;;13.10;87.10;;;;;;4938350;29;20020;-83
2023/03/25 10:56:02;;;;;;;6.53;1.70;;;13.10;87.00;;;;;;4922715;29;20553;-83
2023/03/25 10:58:29;;;;;;;5.50;1.50;;;13.20;86.80;;;;;;4922626;29;20024;-82
2023/03/25 11:00:55;;;;;;;4.95;1.73;;;13.20;86.50;;;;;;4923494;29;20489;-83
2023/03/25 11:03:26;;;;;;;7.15;1.70;;;13.20;86.40;;;;;;4952820;29;20036;-79
2023/03/25 11:05:53;;;;;;;6.32;2.00;;;13.20;86.20;;;;;;4933934;29;20043;-83
2023/03/25 11:08:20;;;;;;;5.30;1.70;;;13.20;86.00;;;;;;4924654;29;20026;-83
2023/03/25 11:10:54;;;;;;;6.25;1.88;;;13.30;86.10;;;;;;4932672;29;20024;-81
2023/03/25 11:13:24;;;;;;;4.95;1.58;;;13.20;86.10;;;;;;4917413;29;20039;-84
2023/03/25 11:15:52;;;;;;;5.28;1.58;;;13.20;86.10;;;;;;4901252;29;20073;-83
2023/03/25 11:18:35;;;;;;;5.40;1.58;;;13.10;86.10;;;;;;4905933;29;20139;-84
2023/03/25 11:21:08;;;;;;;6.13;1.80;;;13.20;86.20;;;;;;4921586;29;20023;-81
2023/03/25 11:23:35;;;;;;;3.63;1.60;;;13.20;86.20;;;;;;4955311;29;20031;-81
2023/03/25 11:26:10;;;;;;;4.55;1.60;;;13.20;86.10;;;;;;4953863;28;20034;-80
2023/03/25 11:28:43;;;;;;;3.90;1.50;;;13.30;86.20;;;;;;4951951;29;20036;-81
2023/03/25 11:31:19;;;;;;;4.50;1.60;;;13.30;86.20;;;;;;4937942;29;20511;-80
2023/03/25 11:34:05;;;;;;;3.63;1.40;;;13.30;86.20;;;;;;4951782;29;20024;-82
2023/03/25 11:36:34;;;;;;;3.20;1.40;;;13.30;86.10;;;;;;4953530;29;20028;-84
2023/03/25 11:39:03;;;;;;;3.70;1.60;;;13.40;86.00;;;;;;4934691;29;20020;-83
2023/03/25 11:41:34;;;;;;;6.00;1.48;;;13.40;85.90;;;;;;4936907;29;20034;-84
2023/03/25 11:44:01;;;;;;;4.27;1.40;;;13.50;85.80;;;;;;4951821;29;20067;-83
2023/03/25 11:46:26;;;;;;;4.22;1.40;;;13.40;85.70;;;;;;4951768;29;20055;-82
2023/03/25 11:48:52;;;;;;;3.45;1.20;;;13.50;85.70;;;;;;4947747;29;20461;-82
2023/03/25 11:51:22;;;;;;;3.42;1.40;;;13.40;85.70;;;;;;4947039;29;20046;-81
2023/03/25 11:53:58;;;;;;;5.07;1.50;;;13.40;85.80;;;;;;4932437;29;20027;-81
2023/03/25 11:56:31;;;;;;;4.40;1.40;;;13.40;85.90;;;;;;4918145;29;20052;-81
2023/03/25 11:59:00;;;;;;;4.57;1.52;;;13.40;85.90;;;;;;4918354;29;20453;-81
2023/03/25 12:01:36;;;;;;;4.72;1.42;;;13.40;85.90;;;;;;4939257;29;20038;-79
2023/03/25 12:04:16;;;;;;;3.00;1.17;;;13.40;85.90;;;;;;4951976;29;20035;-81
2023/03/25 12:07:09;;;;;;;2.45;1.10;;;13.40;85.90;;;;;;4951480;29;20465;-82
2023/03/25 12:09:35;;;;;;;2.08;1.30;;;13.40;85.80;;;;;;4951230;29;20115;-82
2023/03/25 12:12:16;;;;;;;2.67;1.20;;;13.40;85.90;;;;;;4926731;29;20115;-81
2023/03/25 12:15:14;;;;;;;2.83;1.23;;;13.40;86.00;;;;;;4932594;29;20020;-83
2023/03/25 12:17:50;;;;;;;4.03;1.30;;;13.40;86.00;;;;;;4914526;29;20028;-82
2023/03/25 12:20:25;;;;;;;3.10;1.40;;;13.40;86.10;;;;;;4932100;29;20055;-81
2023/03/25 12:23:09;;;;;;;4.28;1.33;;;13.40;86.10;;;;;;4932335;29;20119;-81
2023/03/25 12:25:57;;;;;;;3.45;1.50;;;13.40;86.30;;;;;;4917570;29;20493;-82
2023/03/25 12:28:29;;;;;;;3.83;1.30;;;13.40;86.30;;;;;;4931376;29;20400;-81
2023/03/25 12:31:22;;;;;;;3.90;1.17;;;13.30;86.40;;;;;;4931999;29;20024;-81
2023/03/25 12:33:47;;;;;;;2.80;1.27;;;13.30;86.40;;;;;;4917619;29;20107;-82
2023/03/25 12:36:41;;;;;;;3.08;1.20;;;13.30;86.50;;;;;;4917602;29;20126;-81
2023/03/25 12:39:09;;;;;;;3.97;1.17;;;13.30;86.50;;;;;;4931877;29;20028;-82
2023/03/25 12:41:56;;;;;;;3.85;1.33;;;13.20;86.60;;;;;;4931638;29;20549;-81
2023/03/25 12:44:50;;;;;;;3.35;1.30;;;13.20;86.60;;;;;;4915638;29;20028;-79
2023/03/25 12:47:18;;;;;;;3.05;1.20;;;13.20;86.70;;;;;;4917093;29;20039;-81
2023/03/25 12:50:04;;;;;;;3.25;1.40;;;13.20;86.80;;;;;;4921485;29;20110;-83
2023/03/25 12:53:06;;;;;;;3.03;1.30;;;13.20;86.80;;;;;;4903595;29;20033;-83
2023/03/25 12:55:55;;;;;;;5.32;1.38;;;13.20;86.80;;;;;;4901685;29;20033;-83
2023/03/25 12:58:29;;;;;;;5.22;1.40;;;13.20;86.70;;;;;;4911242;29;20095;-83
2023/03/25 13:01:23;;;;;;;3.45;1.00;;;13.20;86.60;;;;;;4920882;29;20028;-82
2023/03/25 13:04:16;;;;;;;2.97;1.10;;;13.30;86.40;;;;;;4920463;29;20083;-82
2023/03/25 13:07:05;;;;;;;2.45;1.10;;;13.30;86.40;;;;;;4921435;29;20024;-82
2023/03/25 13:09:56;;;;;;;3.28;1.30;;;13.30;86.30;;;;;;4909685;29;20383;-81
2023/03/25 13:12:36;;;;;;;;;;;13.30;86.40;;;;;;4941665;29;20025;-82
2023/03/25 13:15:05;;;;;;;3.47;1.10;;;13.30;86.50;;;;;;4919519;29;19907;-82
2023/03/25 13:17:57;;;;;;;2.33;1.23;;;13.30;86.60;;;;;;4934501;29;20024;-82
2023/03/25 13:20:30;;;;;;;3.28;1.02;;;13.20;86.70;;;;;;4899880;29;20033;-77
2023/03/25 13:23:01;;;;;;;3.30;1.20;;;13.20;86.70;;;;;;4900710;29;20052;-82
2023/03/25 13:25:41;;;;;;;2.20;1.10;;;13.20;86.80;;;;;;4900618;29;20458;-81
2023/03/25 13:28:11;;;;;;;4.20;1.23;;;13.20;86.90;;;;;;4905102;29;20044;-81
2023/03/25 13:30:41;;;;;;;2.92;1.30;;;13.20;86.90;;;;;;4916324;29;20032;-78
2023/03/25 13:33:36;;;;;;;3.28;1.17;;;13.20;87.00;;;;;;4936954;29;20445;-83
2023/03/25 13:36:24;;;;;;;3.08;1.23;;;13.20;87.10;;;;;;4934633;29;20508;-78
2023/03/25 13:38:55;;;;;;;2.17;1.10;;;13.10;87.10;;;;;;4952211;29;20038;-80
2023/03/25 13:41:45;;;;;;;2.45;1.20;;;13.10;87.10;;;;;;4939325;29;20054;-82
2023/03/25 13:44:13;;;;;;;3.08;1.30;;;13.10;87.10;;;;;;4941230;29;20052;-81
2023/03/25 13:47:00;;;;;;;2.13;1.10;;;13.10;87.10;;;;;;4957163;29;20448;-82
2023/03/25 13:49:41;;;;;;;3.05;1.10;;;13.10;87.10;;;;;;4943401;29;20111;-80
2023/03/25 13:52:07;;;;;;;2.90;1.02;;;13.10;87.10;;;;;;4946944;29;20051;-78
2023/03/25 13:54:45;;;;;;;3.85;1.33;;;13.10;87.10;;;;;;4959003;29;20178;-78
2023/03/25 13:57:48;;;;;;;3.97;1.30;;;13.10;87.20;;;;;;4958071;29;20028;-77
2023/03/25 14:00:37;;;;;;;2.35;1.02;;;13.10;87.30;;;;;;4925800;29;20028;-77
2023/03/25 14:03:24;;;;;;;1.80;1.00;;;13.10;87.30;;;;;;4955073;29;20031;-82
2023/03/25 14:06:28;;;;;;;1.95;1.00;;;13.10;87.50;;;;;;4957870;29;20031;-81
2023/03/25 14:09:12;;;;;;;3.08;1.13;;;13.10;87.60;;;;;;4942621;29;20032;-79
2023/03/25 14:12:12;;;;;;;3.10;1.20;;;13.00;87.60;;;;;;4916472;29;20030;-81
2023/03/25 14:14:44;;;;;;;2.78;1.23;;;13.00;87.60;;;;;;4900019;29;20032;-81
2023/03/25 14:17:12;;;;;;;3.92;0.90;;;13.00;87.60;;;;;;4917712;29;20029;-77
2023/03/25 14:19:42;;;;;;;3.90;1.10;;;13.00;87.60;;;;;;4911012;29;20518;-78
2023/03/25 14:22:14;;;;;;;2.28;1.10;;;13.00;87.60;;;;;;4918928;29;20516;-82
2023/03/25 14:24:40;;;;;;;2.60;1.20;;;13.00;87.60;;;;;;4937024;29;20071;-80
2023/03/25 14:27:25;;;;;;;4.10;1.30;;;13.00;88.20;;;;;;4921945;29;20105;-81
2023/03/25 14:30:00;;;;;;;1.90;1.02;;;13.00;87.60;;;;;;4918264;29;20040;-79
2023/03/25 14:32:31;;;;;;;1.83;0.98;;;13.00;87.60;;;;;;4939100;29;20515;-82
2023/03/25 14:35:37;;;;;;;3.30;1.30;;;13.00;87.60;;;;;;4941355;29;20031;-84
2023/03/25 14:38:08;;;;;;;2.78;1.40;;;13.00;87.70;;;;;;4955560;29;20030;-83
2023/03/25 14:40:45;;;;;;;2.15;1.20;;;13.00;87.70;;;;;;4953069;29;20035;-83
2023/03/25 14:43:22;;;;;;;2.55;1.00;;;13.00;87.70;;;;;;4952912;29;20087;-83
2023/03/25 14:46:03;;;;;;;2.22;1.17;;;13.00;87.70;;;;;;4938449;29;20028;-83
2023/03/25 14:48:36;;;;;;;2.88;1.00;;;13.00;87.70;;;;;;4935324;29;20472;-82
2023/03/25 14:51:33;;;;;;;1.98;0.93;;;13.00;87.80;;;;;;4954735;29;20032;-84
2023/03/25 14:54:15;;;;;;;2.10;1.00;;;13.00;87.70;;;;;;4940209;29;20034;-84
2023/03/25 14:57:10;;;;;;;2.38;1.13;;;12.90;87.80;;;;;;4940313;29;20418;-82
2023/03/25 14:59:42;;;;;;;3.03;1.00;;;12.90;87.70;;;;;;4922338;29;20088;-83
2023/03/25 15:02:24;;;;;;;2.45;1.10;;;13.00;87.90;;;;;;4918748;29;20119;-83
2023/03/25 15:04:53;;;;;;;2.42;1.00;;;12.90;87.80;;;;;;4917703;29;20029;-85
2023/03/25 15:07:50;;;;;;;1.92;1.10;;;12.90;87.90;;;;;;4918571;29;20028;-84
2023/03/25 15:10:29;;;;;;;3.35;1.20;;;12.90;87.90;;;;;;4918240;29;20509;-83
2023/03/25 15:13:08;;;;;;;3.65;1.13;;;12.90;88.00;;;;;;4919850;29;20549;-82
2023/03/25 15:16:01;;;;;;;2.20;1.02;;;12.90;87.90;;;;;;4920674;29;20024;-82
2023/03/25 15:18:36;;;;;;;2.55;1.02;;;12.90;87.90;;;;;;4899064;29;20040;-82
2023/03/25 15:21:13;;;;;;;2.20;1.00;;;12.90;87.90;;;;;;4932818;29;20047;-81
2023/03/25 15:23:52;;;;;;;2.63;0.90;;;13.00;88.00;;;;;;4918805;29;20259;-81
2023/03/25 15:26:26;;;;;;;2.75;1.08;;;12.90;88.00;;;;;;4933188;29;20028;-82
2023/03/25 15:29:06;;;;;;;3.85;1.30;;;13.00;87.90;;;;;;4941852;29;20507;-82
2023/03/25 15:31:46;;;;;;;2.22;0.90;;;13.00;87.90;;;;;;4952104;29;20158;-83
2023/03/25 15:34:33;;;;;;;2.15;1.00;;;12.90;87.90;;;;;;4938982;29;20020;-80
2023/03/25 15:37:30;;;;;;;2.92;1.00;;;12.90;87.90;;;;;;4940954;29;20019;-85
2023/03/25 15:40:21;;;;;;;6.97;1.30;;;12.90;88.00;;;;;;4940983;29;20032;-81
2023/03/25 15:43:23;;;;;;;4.70;1.13;;;12.80;86.00;;;;;;4918377;29;20028;-82
2023/03/25 15:46:10;;;;;;;5.30;1.20;;;12.70;85.80;;;;;;4916864;29;20084;-82
2023/03/25 15:48:53;;;;;;;7.25;1.50;;;12.80;86.00;;;;;;4916348;29;20028;-82
2023/03/25 15:51:39;;;;;;;6.90;1.92;;;12.80;86.20;;;;;;4916486;29;20031;-82
2023/03/25 15:54:15;;;;;;;5.35;1.10;;;12.80;86.10;;;;;;4917846;29;20030;-82
2023/03/25 15:56:44;;;;;;;6.63;1.20;;;12.80;86.10;;;;;;4918230;29;20513;-82
2023/03/25 15:59:25;;;;;;;5.57;1.45;;;12.90;86.30;;;;;;4919669;29;20051;-82
2023/03/25 16:01:51;;;;;;;4.85;1.20;;;12.90;86.40;;;;;;4940760;29;20041;-82
2023/03/25 16:04:33;;;;;;;4.93;1.20;;;12.90;86.50;;;;;;4951834;29;20032;-82
2023/03/25 16:07:02;;;;;;;5.65;1.27;;;12.90;86.60;;;;;;4952140;29;20400;-81
2023/03/25 16:09:28;;;;;;;5.22;1.13;;;12.90;86.70;;;;;;4933913;29;20032;-82
2023/03/25 16:12:01;;;;;;;5.40;1.10;;;12.90;86.80;;;;;;4932568;29;20381;-81
2023/03/25 16:14:32;;;;;;;3.20;1.00;;;12.90;86.80;;;;;;4951619;29;20028;-82
2023/03/25 16:17:00;;;;;;;2.85;0.82;;;12.90;86.90;;;;;;4936923;29;20114;-82
2023/03/25 16:19:36;;;;;;;3.38;1.00;;;12.90;87.00;;;;;;4954834;23;20099;-86
2023/03/25 16:22:33;;;;;;;4.88;0.93;;;12.80;87.00;;;;;;4934662;29;20505;-85
2023/03/25 16:25:13;;;;;;;3.33;0.90;;;12.80;87.10;;;;;;4935204;29;20035;-85
2023/03/25 16:27:43;;;;;;;4.15;1.00;;;12.80;87.20;;;;;;4934943;29;20555;-85
2023/03/25 16:30:27;;;;;;;4.60;1.20;;;12.80;87.20;;;;;;4921568;29;20120;-83
2023/03/25 16:33:05;;;;;;;3.25;1.00;;;12.80;87.20;;;;;;4913049;29;20032;-86
2023/03/25 16:35:31;;;;;;;2.95;0.95;;;12.80;87.40;;;;;;4935076;29;20042;-86
2023/03/25 16:37:58;;;;;;;3.70;1.00;;;12.80;87.30;;;;;;4934842;29;20511;-84
2023/03/25 16:40:37;;;;;;;3.70;1.02;;;12.80;87.30;;;;;;4917383;29;20032;-86
2023/03/25 16:43:05;;;;;;;3.08;0.98;;;12.80;87.30;;;;;;4915646;29;20036;-85
2023/03/25 16:45:31;;;;;;;2.92;0.90;;;12.80;87.40;;;;;;4929366;29;20058;-86
2023/03/25 16:48:06;;;;;;;2.95;0.90;;;12.80;87.50;;;;;;4934667;29;20547;-86
2023/03/25 16:50:31;;;;;;;4.15;1.10;;;12.80;87.60;;;;;;4921609;29;20098;-86
2023/03/25 16:53:20;;;;;;;2.67;0.82;;;12.80;87.80;;;;;;5069776;28;20314;-85
2023/03/25 16:55:56;;;;;;;3.35;0.90;;;12.80;87.60;;;;;;5068494;28;20063;-86
2023/03/25 16:58:24;;;;;;;2.13;0.80;;;12.80;87.70;;;;;;5068664;28;20028;-85
2023/03/25 17:00:53;;;;;;;3.70;0.98;;;12.80;87.80;;;;;;5064227;28;20493;-86
2023/03/25 17:03:40;;;;;;;1.90;0.85;;;12.80;87.80;;;;;;5067067;28;20017;-85
2023/03/25 17:06:26;;;;;;;4.70;1.10;;;12.80;87.80;;;;;;5068359;28;20021;-85
2023/03/25 17:08:53;;;;;;;3.17;0.90;;;12.80;87.80;;;;;;5068633;28;20024;-85
2023/03/25 17:11:21;;;;;;;3.83;1.17;;;12.80;87.80;;;;;;5049489;28;20037;-86
2023/03/25 17:13:50;;;;;;;3.58;0.95;;;12.80;87.80;;;;;;5064701;28;20017;-85
2023/03/25 17:16:21;;;;;;;2.53;0.90;;;12.80;87.90;;;;;;5048656;28;20021;-85
2023/03/25 17:18:50;;;;;;;4.03;1.13;;;12.80;88.10;;;;;;5049432;28;20101;-86
2023/03/25 17:21:31;;;;;;;2.60;0.90;;;12.80;88.10;;;;;;5064435;28;20025;-85
2023/03/25 17:24:20;;;;;;;2.35;0.80;;;12.70;88.00;;;;;;5068136;28;20440;-87
2023/03/25 17:26:55;;;;;;;2.65;0.90;;;12.80;88.10;;;;;;5068165;28;20029;-85
2023/03/25 17:29:21;;;;;;;2.60;0.80;;;12.80;88.10;;;;;;5064924;28;20030;-85
2023/03/25 17:31:55;;;;;;;3.85;0.90;;;12.80;88.20;;;;;;5056544;28;20032;-85
2023/03/25 17:34:23;;;;;;;3.60;0.90;;;12.70;88.10;;;;;;5047975;28;20029;-86
2023/03/25 17:36:56;;;;;;;2.53;0.93;;;12.70;88.10;;;;;;5047894;28;20439;-85
2023/03/25 17:39:27;;;;;;;2.22;0.85;;;12.70;88.10;;;;;;5048600;28;20079;-85
2023/03/25 17:42:00;;;;;;;3.15;1.05;;;12.70;88.10;;;;;;5058384;28;20107;-85
2023/03/25 17:44:36;;;;;;;2.15;0.88;;;12.80;88.10;;;;;;5068149;28;20056;-84
2023/03/25 17:47:02;;;;;;;2.65;0.73;;;12.80;88.10;;;;;;5068022;28;20051;-83
2023/03/25 17:49:27;;;;;;;2.58;0.70;;;12.80;88.20;;;;;;5064997;28;20478;-84
2023/03/25 17:51:53;;;;;;;2.63;0.80;;;12.70;88.00;;;;;;5061700;28;20029;-83
2023/03/25 17:54:18;;;;;;;1.88;0.80;;;12.70;88.10;;;;;;5047166;28;20028;-85
2023/03/25 17:56:45;;;;;;;1.80;0.75;;;12.70;88.10;;;;;;5049077;28;20023;-84
2023/03/25 17:59:22;;;;;;;2.58;0.70;;;12.70;88.10;;;;;;5047940;28;20064;-85
2023/03/25 18:01:48;;;;;;;3.63;0.95;;;12.60;88.10;;;;;;5054087;28;20124;-87
2023/03/25 18:04:15;;;;;;;3.63;0.88;;;12.70;88.10;;;;;;5037314;28;20033;-85
2023/03/25 18:06:40;;;;;;;2.20;0.85;;;12.70;88.10;;;;;;5034188;28;20033;-84
2023/03/25 18:09:18;;;;;;;2.70;0.82;;;12.70;88.20;;;;;;5034322;28;20417;-86
2023/03/25 18:11:46;;;;;;;2.60;0.90;;;12.70;88.20;;;;;;5045207;28;20524;-85
2023/03/25 18:14:12;;;;;;;2.95;0.82;;;12.70;88.20;;;;;;5037395;28;20025;-86
2023/03/25 18:16:37;;;;;;;3.88;1.30;;;12.70;88.20;;;;;;5053855;28;20024;-85
2023/03/25 18:19:05;;;;;;;3.58;1.13;;;12.70;88.20;;;;;;5053053;28;20564;-85
2023/03/25 18:21:30;;;;;;;2.95;1.10;;;12.70;88.20;;;;;;5044408;28;20029;-85
2023/03/25 18:23:56;;;;;;;2.65;1.00;;;12.70;88.20;;;;;;5033684;28;20108;-86
2023/03/25 18:26:21;;;;;;;2.70;0.90;;;12.70;88.20;;;;;;5033907;28;20022;-85
2023/03/25 18:28:47;;;;;;;3.03;0.93;;;12.70;88.20;;;;;;5033678;28;20434;-85
2023/03/25 18:31:16;;;;;;;2.75;0.93;;;12.70;88.20;;;;;;5042520;28;20055;-85